Time;durP1;ratioP1;P1;durP2;ratioP2;P2;SDS_P1;SDS_P2;PMS_P1;PMS_P2;Temp;Humidity;BMP_temperature;BMP_pressure;BME280_temperature;BME280_humidity;BME280_pressure;Samples;Min_cycle;Max_cycle;Signal;HPM_P1;HPM_P2
2023/02/10 00:01:02;;;;;;;63.55;30.13;;;;;;;3.87;83.07;103062.13;5054697;28;20033;-49
2023/02/10 00:03:29;;;;;;;63.95;31.05;;;;;;;3.90;82.95;103067.25;5055192;28;20132;-51
2023/02/10 00:05:56;;;;;;;67.85;30.73;;;;;;;3.86;83.26;103077.03;5055208;28;20050;-51
2023/02/10 00:08:22;;;;;;;65.72;30.90;;;;;;;3.88;83.51;103074.34;5055540;28;20486;-51
2023/02/10 00:10:49;;;;;;;65.70;31.42;;;;;;;3.90;83.54;103075.16;5055302;28;20079;-52
2023/02/10 00:13:16;;;;;;;63.10;31.80;;;;;;;3.92;83.09;103070.69;5055047;28;20057;-52
2023/02/10 00:15:42;;;;;;;66.72;31.20;;;;;;;3.83;83.81;103064.84;5037002;28;20049;-51
2023/02/10 00:18:10;;;;;;;63.55;31.10;;;;;;;3.85;83.53;103070.88;5037522;28;20123;-50
2023/02/10 00:20:36;;;;;;;60.83;30.17;;;;;;;3.97;83.20;103072.25;5055029;28;20099;-50
2023/02/10 00:23:03;;;;;;;71.63;31.42;;;;;;;4.01;83.02;103084.34;5055304;28;20483;-52
2023/02/10 00:25:30;;;;;;;64.13;31.08;;;;;;;3.96;82.86;103085.41;5055114;28;20041;-51
2023/02/10 00:27:56;;;;;;;65.28;31.20;;;;;;;3.97;83.10;103084.53;5055044;28;20045;-52
2023/02/10 00:30:23;;;;;;;63.75;31.65;;;;;;;4.00;82.92;103085.28;5055109;28;20057;-52
2023/02/10 00:32:50;;;;;;;61.97;31.02;;;;;;;4.01;82.75;103084.34;5054791;28;20055;-51
2023/02/10 00:35:17;;;;;;;71.30;32.08;;;;;;;3.82;83.41;103080.63;5054614;28;20052;-51
2023/02/10 00:37:44;;;;;;;67.07;31.17;;;;;;;3.90;83.11;103083.03;5054997;28;20049;-51
2023/02/10 00:40:10;;;;;;;64.63;31.85;;;;;;;3.83;83.52;103088.47;5054485;28;20072;-51
2023/02/10 00:42:37;;;;;;;64.22;31.45;;;;;;;3.80;83.88;103082.47;5054991;28;20053;-50
2023/02/10 00:45:04;;;;;;;61.15;31.30;;;;;;;3.81;83.45;103084.19;5054428;28;20400;-51
2023/02/10 00:47:31;;;;;;;64.40;30.67;;;;;;;3.78;83.74;103085.16;5054338;28;20047;-49
2023/02/10 00:49:59;;;;;;;62.88;30.95;;;;;;;3.85;83.65;103083.16;5054406;28;20044;-52
2023/02/10 00:52:26;;;;;;;62.10;29.80;;;;;;;3.86;83.32;103090.16;5054534;28;20525;-52
2023/02/10 00:54:53;;;;;;;64.38;30.65;;;;;;;3.95;83.29;103084.56;5054406;28;20041;-52
2023/02/10 00:57:19;;;;;;;63.28;30.48;;;;;;;3.84;83.66;103082.31;5054497;28;20131;-54
2023/02/10 00:59:48;;;;;;;63.03;30.90;;;;;;;3.88;83.16;103080.44;5053699;28;20053;-50
2023/02/10 01:02:15;;;;;;;63.85;30.30;;;;;;;3.93;83.34;103080.25;5054014;28;20049;-51
2023/02/10 01:04:43;;;;;;;65.60;29.83;;;;;;;3.98;83.45;103086.22;5054500;28;20056;-53
2023/02/10 01:07:09;;;;;;;61.28;31.88;;;;;;;3.98;82.99;103084.47;5054318;28;20041;-53
2023/02/10 01:09:36;;;;;;;70.32;32.05;;;;;;;3.65;84.21;103079.44;5054340;28;20080;-53
2023/02/10 01:12:03;;;;;;;68.03;31.42;;;;;;;3.89;83.79;103089.16;5053955;28;20045;-51
2023/02/10 01:14:30;;;;;;;63.25;31.20;;;;;;;3.91;83.29;103088.22;5054156;28;20086;-52
2023/02/10 01:16:56;;;;;;;62.25;30.58;;;;;;;3.73;84.18;103092.34;5053994;28;20045;-51
2023/02/10 01:19:23;;;;;;;67.50;30.80;;;;;;;3.65;84.75;103091.72;5054256;28;20167;-51
2023/02/10 01:21:49;;;;;;;63.40;30.92;;;;;;;3.70;84.88;103100.31;5053533;28;20049;-53
2023/02/10 01:24:16;;;;;;;61.28;30.58;;;;;;;3.62;84.98;103102.31;5053852;28;20053;-52
2023/02/10 01:26:43;;;;;;;64.65;29.85;;;;;;;3.75;85.35;103097.53;5054018;28;20049;-51
2023/02/10 01:29:11;;;;;;;56.45;29.95;;;;;;;3.65;85.59;103102.22;4942631;28;20552;-51
2023/02/10 01:31:38;;;;;;;62.80;29.85;;;;;;;3.79;84.74;103107.88;5005568;28;20494;-53
2023/02/10 01:34:05;;;;;;;64.35;30.65;;;;;;;3.83;84.68;103109.47;5053511;28;20044;-53
2023/02/10 01:36:36;;;;;;;56.67;29.60;;;;;;;3.81;84.79;103113.06;5053755;28;20045;-51
2023/02/10 01:39:03;;;;;;;63.20;29.98;;;;;;;3.77;85.08;103104.44;5053552;28;20103;-51
2023/02/10 01:41:30;;;;;;;67.57;29.95;;;;;;;3.71;85.42;103116.91;5053779;28;20048;-52
2023/02/10 01:44:04;;;;;;;57.03;29.33;;;;;;;3.75;85.44;103119.41;5053616;28;20450;-52
2023/02/10 01:46:33;;;;;;;57.97;29.27;;;;;;;3.79;84.66;103123.63;5053500;28;20037;-51
2023/02/10 01:49:07;;;;;;;62.72;30.40;;;;;;;3.77;85.05;103117.56;5053642;28;20069;-52
2023/02/10 01:51:45;;;;;;;62.42;29.80;;;;;;;3.65;85.44;103105.69;5047218;28;20075;-52
2023/02/10 01:54:18;;;;;;;58.65;29.42;;;;;;;3.77;85.07;103109.69;5031813;28;20049;-52
2023/02/10 01:56:46;;;;;;;60.85;30.05;;;;;;;3.49;85.70;103101.88;5032270;28;20557;-52
2023/02/10 01:59:14;;;;;;;61.15;29.92;;;;;;;3.73;85.39;103115.97;5032716;28;20128;-52
2023/02/10 02:01:40;;;;;;;70.00;29.95;;;;;;;3.74;85.39;103117.66;5044033;28;20041;-52
2023/02/10 02:04:07;;;;;;;60.47;30.27;;;;;;;3.64;86.09;103121.53;5053406;28;20053;-51
2023/02/10 02:06:35;;;;;;;63.33;31.60;;;;;;;3.52;86.48;103127.16;5035627;28;20045;-52
2023/02/10 02:09:02;;;;;;;72.78;32.28;;;;;;;3.44;86.83;103130.91;5053366;28;20103;-51
2023/02/10 02:12:09;;;;;;;68.38;31.23;;;;;;;3.43;87.43;103139.66;5053438;28;20390;-52
2023/02/10 02:14:49;;;;;;;63.17;30.10;;;;;;;3.40;87.33;103129.28;5052741;28;20045;-51
2023/02/10 02:17:38;;;;;;;60.95;29.67;;;;;;;3.37;87.58;103132.00;5053341;28;20049;-52
2023/02/10 02:23:43;;;;;;;66.43;30.88;;;;;;;3.27;88.37;103133.19;5111273;27;20403;-53
2023/02/10 02:29:30;;;;;;;60.17;29.73;;;;;;;3.49;88.30;103133.34;5111290;27;20354;-50
2023/02/10 02:32:01;;;;;;;69.25;31.17;;;;;;;3.61;87.13;103132.97;5111048;28;20051;-50
2023/02/10 02:34:42;;;;;;;66.45;30.65;;;;;;;3.54;87.73;103141.09;5111306;28;20489;-52
2023/02/10 02:37:15;;;;;;;64.07;30.92;;;;;;;3.60;87.12;103135.63;5111153;28;20044;-51
2023/02/10 02:39:43;;;;;;;67.82;30.77;;;;;;;3.53;87.59;103140.25;5111322;28;20146;-51
2023/02/10 02:42:21;;;;;;;61.65;29.05;;;;;;;3.39;88.45;103135.44;5111010;28;20047;-53
2023/02/10 02:44:55;;;;;;;73.15;30.50;;;;;;;3.31;89.25;103132.22;5111225;28;20044;-50
2023/02/10 02:48:02;;;;;;;67.68;32.60;;;;;;;3.38;88.80;103136.31;5110900;28;20402;-53
2023/02/10 02:50:39;;;;;;;63.40;29.48;;;;;;;3.31;88.92;103139.19;5110485;28;20079;-52
2023/02/10 02:53:19;;;;;;;73.95;31.33;;;;;;;3.42;88.48;103144.94;5110540;28;20063;-53
2023/02/10 02:56:10;;;;;;;66.70;30.85;;;;;;;3.26;89.33;103134.97;5110924;28;20052;-53
2023/02/10 02:58:46;;;;;;;66.30;31.02;;;;;;;3.36;88.91;103145.16;5110374;28;20058;-53
2023/02/10 03:01:17;;;;;;;67.07;30.90;;;;;;;3.31;89.25;103137.44;5110219;28;20051;-51
2023/02/10 03:03:46;;;;;;;68.22;31.45;;;;;;;3.37;88.69;103149.53;5110752;28;20516;-49
2023/02/10 03:06:12;;;;;;;65.35;29.83;;;;;;;3.42;88.86;103150.19;5110275;28;20379;-52
2023/02/10 03:08:41;;;;;;;63.53;32.08;;;;;;;3.34;89.04;103146.97;5110582;28;20051;-50
2023/02/10 03:11:08;;;;;;;66.47;30.77;;;;;;;3.41;88.65;103143.25;5110448;28;20052;-49
2023/02/10 03:13:35;;;;;;;68.15;31.13;;;;;;;3.44;88.58;103144.03;5110797;28;20052;-48
2023/02/10 03:16:02;;;;;;;61.22;29.80;;;;;;;3.56;88.00;103142.75;5110316;28;20481;-48
2023/02/10 03:18:29;;;;;;;61.63;30.67;;;;;;;3.45;88.55;103148.34;5110360;28;20089;-49
2023/02/10 03:20:56;;;;;;;65.70;30.08;;;;;;;3.43;88.62;103142.28;5110395;28;20066;-48
2023/02/10 03:23:22;;;;;;;63.85;30.50;;;;;;;3.41;88.77;103136.22;5110343;28;20512;-49
2023/02/10 03:25:49;;;;;;;66.75;31.52;;;;;;;3.46;88.42;103126.44;5110313;28;20045;-49
2023/02/10 03:28:16;;;;;;;63.42;29.67;;;;;;;3.46;87.76;103123.81;5109733;28;20052;-51
2023/02/10 03:30:48;;;;;;;64.80;31.17;;;;;;;3.44;88.05;103117.78;5110289;28;20100;-50
2023/02/10 03:33:16;;;;;;;62.85;29.92;;;;;;;3.38;88.52;103104.84;5110090;28;20064;-50
2023/02/10 03:35:45;;;;;;;68.38;31.02;;;;;;;3.25;89.13;103104.38;5110006;28;20131;-50
2023/02/10 03:38:13;;;;;;;62.95;31.05;;;;;;;3.24;89.10;103102.66;5108866;28;20511;-51
2023/02/10 03:40:40;;;;;;;67.45;31.70;;;;;;;3.08;89.94;103099.66;5096160;28;20071;-51
2023/02/10 03:43:07;;;;;;;68.18;30.95;;;;;;;3.15;89.60;103102.97;5096529;28;20044;-50
2023/02/10 03:45:34;;;;;;;70.20;30.15;;;;;;;3.04;90.25;103100.66;5096155;28;20048;-49
2023/02/10 03:48:00;;;;;;;64.97;31.60;;;;;;;3.00;90.59;103087.69;5096274;28;20044;-49
2023/02/10 03:50:27;;;;;;;63.78;30.27;;;;;;;3.01;90.49;103099.91;5096066;28;20044;-50
2023/02/10 03:52:54;;;;;;;66.60;31.42;;;;;;;3.03;90.65;103108.59;5081358;28;20105;-49
2023/02/10 03:55:20;;;;;;;61.97;30.10;;;;;;;2.98;90.74;103105.25;5075738;28;20048;-53
2023/02/10 03:57:47;;;;;;;65.03;31.63;;;;;;;2.92;90.54;103116.78;5075998;28;20040;-50
2023/02/10 04:00:15;;;;;;;61.72;29.75;;;;;;;2.89;90.43;103119.47;5074975;28;20052;-50
2023/02/10 04:02:42;;;;;;;63.90;29.50;;;;;;;2.88;89.88;103123.03;5095394;28;20051;-50
2023/02/10 04:05:09;;;;;;;68.78;32.55;;;;;;;2.83;90.11;103124.91;5095843;28;20048;-52
2023/02/10 04:07:36;;;;;;;58.97;29.92;;;;;;;2.93;89.93;103134.25;5095759;28;20048;-50
2023/02/10 04:10:04;;;;;;;69.93;28.95;;;;;;;2.91;90.28;103122.94;5095801;28;20054;-51
2023/02/10 04:12:31;;;;;;;65.45;29.65;;;;;;;2.84;90.08;103135.38;5095958;28;20052;-51
2023/02/10 04:14:58;;;;;;;65.35;29.83;;;;;;;2.71;90.33;103147.13;5095490;28;20444;-52
2023/02/10 04:17:24;;;;;;;65.88;30.92;;;;;;;2.58;90.68;103143.09;5095734;28;20085;-51
2023/02/10 04:19:51;;;;;;;61.85;29.48;;;;;;;2.65;90.00;103145.50;5095781;28;20052;-50
2023/02/10 04:22:18;;;;;;;64.05;29.73;;;;;;;2.62;89.70;103144.72;5095584;28;20543;-51
2023/02/10 04:24:44;;;;;;;60.83;29.70;;;;;;;2.60;89.57;103136.94;5095492;28;20059;-50
2023/02/10 04:27:11;;;;;;;65.32;30.77;;;;;;;2.55;89.75;103136.22;5095112;28;20052;-50
2023/02/10 04:29:39;;;;;;;60.40;30.38;;;;;;;2.51;88.91;103137.19;5095193;28;20402;-49
2023/02/10 04:32:07;;;;;;;62.30;29.42;;;;;;;2.43;89.21;103131.31;5095425;28;20048;-51
2023/02/10 04:34:34;;;;;;;64.32;29.17;;;;;;;2.35;89.26;103138.50;5095410;28;20058;-49
2023/02/10 04:37:02;;;;;;;62.85;28.98;;;;;;;2.33;89.34;103141.19;5095146;28;20044;-49
2023/02/10 04:39:29;;;;;;;60.17;28.95;;;;;;;2.26;89.41;103140.47;5094063;28;20044;-51
2023/02/10 04:41:56;;;;;;;60.45;29.42;;;;;;;2.27;89.68;103147.44;5095568;28;20051;-50
2023/02/10 04:44:22;;;;;;;63.97;29.88;;;;;;;2.19;90.33;103145.94;5095279;28;20489;-50
2023/02/10 04:46:50;;;;;;;60.60;28.85;;;;;;;2.13;90.04;103151.31;5095101;28;20048;-50
2023/02/10 04:49:17;;;;;;;61.17;29.38;;;;;;;2.00;89.81;103156.00;5095069;28;20044;-51
2023/02/10 04:51:44;;;;;;;73.03;28.65;;;;;;;2.04;90.17;103155.91;5093960;28;20067;-49
2023/02/10 04:54:12;;;;;;;64.45;29.15;;;;;;;2.00;90.72;103162.13;5094871;28;20054;-50
2023/02/10 04:56:39;;;;;;;63.63;29.30;;;;;;;1.98;91.19;103163.91;5093791;28;20048;-50
2023/02/10 04:59:05;;;;;;;64.95;29.10;;;;;;;2.01;91.36;103161.22;5094499;28;20098;-50
2023/02/10 05:01:32;;;;;;;58.88;27.88;;;;;;;1.97;91.18;103153.50;5094542;28;20048;-50
2023/02/10 05:03:59;;;;;;;58.47;29.98;;;;;;;1.87;90.93;103148.50;5094758;28;20130;-51
2023/02/10 05:06:26;;;;;;;63.25;28.98;;;;;;;1.83;91.63;103152.06;5094579;28;20043;-50
2023/02/10 05:08:53;;;;;;;63.03;29.08;;;;;;;1.85;91.97;103158.13;5094477;28;20055;-49
2023/02/10 05:11:20;;;;;;;56.25;29.08;;;;;;;1.87;91.31;103153.72;5094821;28;20059;-51
2023/02/10 05:13:47;;;;;;;62.22;29.10;;;;;;;1.80;91.58;103151.28;5094534;28;20052;-51
2023/02/10 05:16:14;;;;;;;62.03;28.20;;;;;;;1.82;92.05;103142.50;5094695;28;20053;-50
2023/02/10 05:18:42;;;;;;;63.33;29.02;;;;;;;1.85;91.96;103144.19;5094353;28;20063;-51
2023/02/10 05:21:11;;;;;;;62.45;27.90;;;;;;;1.86;91.74;103152.00;5094193;28;20089;-50
2023/02/10 05:23:39;;;;;;;64.32;28.95;;;;;;;1.86;92.39;103138.06;5094155;28;20052;-51
2023/02/10 05:26:06;;;;;;;64.38;28.95;;;;;;;1.87;93.22;103145.00;5093256;28;20044;-50
2023/02/10 05:28:33;;;;;;;63.20;30.40;;;;;;;1.96;93.67;103150.00;5093974;28;20101;-50
2023/02/10 05:31:01;;;;;;;62.53;29.63;;;;;;;2.01;94.06;103153.34;5094426;28;20137;-49
2023/02/10 05:33:28;;;;;;;71.90;29.90;;;;;;;2.10;93.82;103155.72;5094123;28;20074;-50
2023/02/10 05:35:54;;;;;;;70.18;30.70;;;;;;;2.15;93.23;103167.84;5092786;28;20074;-50
2023/02/10 05:38:22;;;;;;;66.97;30.98;;;;;;;2.15;93.72;103166.09;5094071;28;20040;-50
2023/02/10 05:40:49;;;;;;;63.88;29.30;;;;;;;2.19;93.51;103174.75;5094187;28;20072;-50
2023/02/10 05:43:15;;;;;;;67.32;30.38;;;;;;;2.15;92.32;103170.47;5094297;28;20040;-49
2023/02/10 05:45:44;;;;;;;64.95;30.05;;;;;;;2.22;92.15;103172.03;5092524;28;20044;-51
2023/02/10 05:48:11;;;;;;;77.30;30.02;;;;;;;2.21;92.04;103168.56;5094096;28;20051;-52
2023/02/10 05:50:39;;;;;;;64.43;30.08;;;;;;;2.17;91.39;103177.41;5092627;28;20436;-50
2023/02/10 05:53:13;;;;;;;61.30;29.98;;;;;;;2.14;91.76;103174.84;5086826;28;20052;-51
2023/02/10 05:55:39;;;;;;;66.72;29.77;;;;;;;2.13;92.20;103174.88;5093338;28;20056;-49
2023/02/10 05:58:06;;;;;;;66.35;30.48;;;;;;;2.13;91.47;103174.88;5091631;28;20135;-51
2023/02/10 06:00:33;;;;;;;66.32;30.17;;;;;;;2.13;91.09;103181.00;5092509;28;20051;-52
2023/02/10 06:02:59;;;;;;;64.32;29.58;;;;;;;2.08;91.10;103178.50;5093225;28;20081;-49
2023/02/10 06:05:26;;;;;;;64.70;28.80;;;;;;;2.02;91.58;103181.28;5093534;28;20443;-50
2023/02/10 06:07:54;;;;;;;66.82;29.38;;;;;;;1.99;91.89;103183.09;5093461;28;20473;-50
2023/02/10 06:10:21;;;;;;;65.97;29.92;;;;;;;1.97;92.22;103183.16;5093790;28;20052;-50
2023/02/10 06:12:49;;;;;;;61.58;29.15;;;;;;;1.94;92.30;103174.50;5093637;28;20093;-51
2023/02/10 06:15:16;;;;;;;66.28;29.55;;;;;;;1.87;92.63;103172.06;5093523;28;20047;-50
2023/02/10 06:17:42;;;;;;;65.00;30.00;;;;;;;1.87;93.22;103182.53;5093456;28;20044;-51
2023/02/10 06:20:09;;;;;;;66.72;28.70;;;;;;;1.89;92.22;103180.72;5093452;28;20127;-51
2023/02/10 06:22:36;;;;;;;66.43;29.08;;;;;;;1.91;92.07;103173.69;5093195;28;20044;-52
2023/02/10 06:25:03;;;;;;;65.43;29.52;;;;;;;1.87;92.49;103177.28;5093470;28;20036;-50
2023/02/10 06:27:30;;;;;;;61.58;29.20;;;;;;;1.81;92.38;103181.81;5093115;28;20490;-51
2023/02/10 06:29:56;;;;;;;70.70;29.83;;;;;;;1.82;92.37;103188.75;5093008;28;20439;-50
2023/02/10 06:32:23;;;;;;;61.97;29.33;;;;;;;1.79;93.31;103187.06;5093318;28;20048;-50
2023/02/10 06:34:51;;;;;;;64.20;28.42;;;;;;;1.78;93.21;103185.34;5093259;28;20050;-52
2023/02/10 06:37:17;;;;;;;64.50;29.25;;;;;;;1.73;92.79;103198.56;5092976;28;20061;-49
2023/02/10 06:39:45;;;;;;;63.53;30.02;;;;;;;1.77;92.34;103203.72;5093150;28;20093;-50
2023/02/10 06:42:11;;;;;;;68.60;29.77;;;;;;;1.79;92.31;103207.16;5093242;28;20055;-51
2023/02/10 06:44:38;;;;;;;69.47;30.10;;;;;;;1.77;92.30;103209.81;5093008;28;20044;-50
2023/02/10 06:47:05;;;;;;;66.72;30.83;;;;;;;1.69;92.71;103211.72;5092909;28;20486;-49
2023/02/10 06:49:31;;;;;;;70.63;30.02;;;;;;;1.61;92.81;103217.16;5092605;28;20048;-50
2023/02/10 06:51:58;;;;;;;66.30;29.58;;;;;;;1.59;93.71;103221.56;5092564;28;20490;-50
2023/02/10 06:54:25;;;;;;;65.60;29.60;;;;;;;1.53;94.01;103219.09;5092663;28;20051;-49
2023/02/10 06:56:52;;;;;;;59.63;28.80;;;;;;;1.54;94.51;103219.03;5092865;28;20048;-49
2023/02/10 06:59:18;;;;;;;59.88;29.95;;;;;;;1.59;93.63;103218.94;5092355;28;20036;-49
2023/02/10 07:01:45;;;;;;;66.80;29.45;;;;;;;1.60;93.27;103217.19;5092773;28;20051;-51
2023/02/10 07:04:12;;;;;;;66.97;29.73;;;;;;;1.58;93.68;103213.75;5092655;28;20094;-50
2023/02/10 07:06:39;;;;;;;65.60;29.30;;;;;;;1.60;93.74;103218.06;5085134;28;20040;-50
2023/02/10 07:09:05;;;;;;;66.22;30.45;;;;;;;1.61;94.52;103217.16;5092707;28;20169;-53
2023/02/10 07:11:33;;;;;;;66.70;31.17;;;;;;;1.60;94.63;103207.59;5093136;28;20040;-50
2023/02/10 07:14:00;;;;;;;67.53;30.02;;;;;;;1.62;95.36;103207.53;5093584;28;20040;-50
2023/02/10 07:16:28;;;;;;;63.45;28.65;;;;;;;1.62;95.33;103210.16;5096756;28;20051;-52
2023/02/10 07:18:54;;;;;;;61.60;29.60;;;;;;;1.65;94.93;103218.78;5096573;28;20044;-51
2023/02/10 07:21:21;;;;;;;69.53;30.65;;;;;;;1.69;95.35;103209.09;5096491;28;20121;-52
2023/02/10 07:23:48;;;;;;;63.97;29.58;;;;;;;1.71;95.05;103207.31;5096582;28;20099;-50
2023/02/10 07:26:17;;;;;;;68.90;30.08;;;;;;;1.73;95.11;103205.56;5096428;28;20068;-52
2023/02/10 07:28:44;;;;;;;64.18;29.77;;;;;;;1.80;94.97;103207.13;5096167;28;20050;-51
2023/02/10 07:31:11;;;;;;;69.82;30.63;;;;;;;1.80;95.09;103204.50;5096590;28;20119;-51
2023/02/10 07:33:39;;;;;;;67.30;30.48;;;;;;;1.82;95.35;103207.94;5096204;28;20050;-53
2023/02/10 07:36:06;;;;;;;67.65;29.65;;;;;;;1.89;95.06;103206.91;5096215;28;20070;-52
2023/02/10 07:38:33;;;;;;;63.80;30.90;;;;;;;1.95;94.38;103210.25;5096538;28;20127;-52
2023/02/10 07:41:01;;;;;;;61.60;29.38;;;;;;;2.00;94.69;103205.75;5096004;28;20489;-51
2023/02/10 07:43:28;;;;;;;66.82;30.58;;;;;;;2.02;94.45;103210.06;5096123;28;20055;-50
2023/02/10 07:46:02;;;;;;;64.70;30.25;;;;;;;1.94;94.58;103217.25;5095559;28;20044;-53
2023/02/10 07:48:29;;;;;;;66.53;30.80;;;;;;;2.05;94.39;103219.59;5095548;28;20451;-50
2023/02/10 07:50:55;;;;;;;65.28;30.30;;;;;;;2.06;94.66;103224.81;5095518;28;20048;-51
2023/02/10 07:53:22;;;;;;;65.03;31.88;;;;;;;2.08;94.21;103225.63;5092146;28;20044;-53
2023/02/10 07:55:50;;;;;;;63.70;29.75;;;;;;;2.01;94.35;103217.97;5072916;28;20098;-54
2023/02/10 07:58:17;;;;;;;58.72;28.63;;;;;;;1.98;94.44;103218.88;5074428;28;20049;-52
2023/02/10 08:00:43;;;;;;;61.85;30.48;;;;;;;1.98;94.27;103218.88;5076959;28;20123;-52
2023/02/10 08:03:14;;;;;;;64.00;30.30;;;;;;;1.96;94.43;103219.81;5093699;28;20379;-50
2023/02/10 08:05:41;;;;;;;62.35;31.25;;;;;;;2.02;94.23;103227.53;5095779;28;20040;-50
2023/02/10 08:08:10;;;;;;;61.92;30.20;;;;;;;2.07;94.33;103228.28;5093942;28;20387;-50
2023/02/10 08:10:40;;;;;;;66.95;31.05;;;;;;;2.07;93.57;103230.91;5096013;28;20102;-49
2023/02/10 08:13:07;;;;;;;65.78;30.30;;;;;;;2.14;93.81;103236.84;5095912;28;20052;-50
2023/02/10 08:15:35;;;;;;;69.97;29.70;;;;;;;2.17;93.62;103236.78;5091207;28;20046;-49
2023/02/10 08:18:05;;;;;;;61.13;30.42;;;;;;;2.19;93.30;103234.97;5087781;28;20130;-49
2023/02/10 08:20:31;;;;;;;60.85;29.35;;;;;;;2.07;93.62;103249.22;5105093;28;20101;-51
2023/02/10 08:22:59;;;;;;;62.88;30.80;;;;;;;2.27;92.78;103243.50;5104260;28;20489;-49
2023/02/10 08:25:26;;;;;;;60.63;29.48;;;;;;;2.41;92.20;103246.63;5091705;28;20044;-50
2023/02/10 08:27:53;;;;;;;64.82;30.58;;;;;;;2.43;91.98;103255.28;5092725;28;20105;-49
2023/02/10 08:30:20;;;;;;;59.35;30.42;;;;;;;2.60;90.79;103261.84;5110979;28;20040;-49
2023/02/10 08:32:47;;;;;;;64.05;31.23;;;;;;;2.85;89.85;103262.06;5096245;28;20062;-52
2023/02/10 08:35:15;;;;;;;63.08;30.85;;;;;;;2.96;88.97;103262.63;5106647;28;20046;-52
2023/02/10 08:37:42;;;;;;;65.55;30.35;;;;;;;3.12;88.64;103259.56;5113418;28;20059;-50
2023/02/10 08:40:09;;;;;;;69.28;30.70;;;;;;;3.32;87.87;103267.72;5060510;28;20079;-50
2023/02/10 08:42:37;;;;;;;65.82;30.65;;;;;;;3.79;85.66;103261.94;5102731;28;20077;-52
2023/02/10 08:45:05;;;;;;;59.28;30.42;;;;;;;3.97;84.54;103261.34;5103920;28;20401;-52
2023/02/10 08:47:33;;;;;;;74.00;32.22;;;;;;;4.18;83.54;103253.66;5094487;28;20061;-52
2023/02/10 08:49:59;;;;;;;62.10;30.83;;;;;;;4.06;83.00;103260.19;5107286;28;20082;-50
2023/02/10 08:52:26;;;;;;;67.32;30.33;;;;;;;3.68;84.81;103259.66;5109814;28;20068;-51
2023/02/10 08:54:53;;;;;;;68.18;32.10;;;;;;;3.65;85.14;103254.47;5085562;28;20048;-50
2023/02/10 08:57:20;;;;;;;68.60;30.88;;;;;;;3.48;86.07;103273.38;5096934;28;20055;-51
2023/02/10 08:59:46;;;;;;;73.45;33.03;;;;;;;3.33;86.79;103264.19;5085817;28;20067;-53
2023/02/10 09:02:14;;;;;;;76.10;32.97;;;;;;;3.42;86.78;103263.03;5091640;28;20081;-52
2023/02/10 09:04:41;;;;;;;75.60;34.45;;;;;;;3.37;87.43;103264.97;5103606;28;20042;-51
2023/02/10 09:07:10;;;;;;;73.30;32.03;;;;;;;3.53;86.91;103262.72;5105398;28;20055;-52
2023/02/10 09:09:39;;;;;;;75.45;32.90;;;;;;;3.51;87.28;103269.78;5087154;28;20040;-52
2023/02/10 09:12:07;;;;;;;77.10;34.45;;;;;;;3.61;86.98;103264.22;5074927;28;20504;-52
2023/02/10 09:14:33;;;;;;;75.70;35.72;;;;;;;3.79;86.42;103257.53;5083515;28;20040;-52
2023/02/10 09:17:00;;;;;;;74.38;33.97;;;;;;;3.82;86.31;103262.69;5096548;28;20094;-53
2023/02/10 09:19:27;;;;;;;80.70;34.97;;;;;;;3.80;85.19;103269.78;5102543;28;20519;-51
2023/02/10 09:21:56;;;;;;;81.45;35.00;;;;;;;3.96;85.08;103270.13;5103862;28;20496;-52
2023/02/10 09:24:23;;;;;;;75.97;33.53;;;;;;;4.16;84.78;103266.84;5087096;28;20096;-52
2023/02/10 09:26:49;;;;;;;87.45;34.40;;;;;;;4.23;83.63;103268.38;5097601;28;20043;-51
2023/02/10 09:29:16;;;;;;;85.63;35.17;;;;;;;4.22;84.02;103276.28;5096257;28;20110;-52
2023/02/10 09:31:43;;;;;;;88.75;36.20;;;;;;;4.40;83.32;103273.06;5100221;28;20074;-52
2023/02/10 09:34:10;;;;;;;87.47;36.70;;;;;;;4.22;83.66;103278.91;5072052;28;20054;-50
2023/02/10 09:36:37;;;;;;;81.78;34.22;;;;;;;4.51;83.69;103271.84;5085544;28;20039;-50
2023/02/10 09:39:03;;;;;;;82.88;35.60;;;;;;;4.53;83.56;103281.41;5103778;28;20523;-52
2023/02/10 09:44:32;;;;;;;85.20;37.78;;;;;;;4.66;83.07;103294.97;5045988;28;20899;-48
2023/02/10 09:50:10;;;;;;;99.18;39.25;;;;;;;4.70;83.15;103290.47;5076948;28;20364;-51
2023/02/10 09:52:55;;;;;;;90.28;35.60;;;;;;;4.94;81.19;103289.59;5060464;28;20048;-53
2023/02/10 09:55:30;;;;;;;89.47;37.05;;;;;;;4.96;81.37;103285.13;5065705;28;20240;-53
2023/02/10 09:58:03;;;;;;;106.65;40.38;;;;;;;5.21;81.28;103289.50;5092480;28;20105;-51
2023/02/10 10:00:35;;;;;;;104.05;39.33;;;;;;;5.16;80.99;103294.94;5064922;28;20090;-49
2023/02/10 10:03:06;;;;;;;102.53;38.03;;;;;;;5.24;80.78;103299.06;5056407;28;20067;-51
2023/02/10 10:05:58;;;;;;;102.07;38.45;;;;;;;5.10;81.45;103296.94;5083700;28;20036;-51
2023/02/10 10:08:30;;;;;;;;;;;;;;;5.02;81.73;103280.56;5059624;28;20047;-52
2023/02/10 10:11:03;;;;;;;117.65;39.13;;;;;;;5.23;81.51;103286.81;5088168;28;20437;-51
2023/02/10 10:13:30;;;;;;;105.72;40.33;;;;;;;5.22;81.66;103283.34;5075062;28;20048;-50
2023/02/10 10:16:24;;;;;;;115.45;41.65;;;;;;;5.51;80.99;103290.16;5063612;28;20181;-51
2023/02/10 10:19:05;;;;;;;117.07;39.47;;;;;;;5.63;80.52;103290.59;5064063;28;20076;-51
2023/02/10 10:21:46;;;;;;;114.55;41.72;;;;;;;5.92;79.78;103282.38;5073212;28;20044;-49
2023/02/10 10:27:17;;;;;;;132.70;42.35;;;;;;;6.20;78.92;103294.47;5081776;27;20138;-56
2023/02/10 10:29:55;;;;;;;122.70;43.17;;;;;;;6.33;78.07;103294.81;5091607;28;20040;-53
2023/02/10 10:32:41;;;;;;;111.75;39.75;;;;;;;5.91;79.00;103300.88;5082788;28;20503;-48
2023/02/10 10:35:16;;;;;;;119.82;40.58;;;;;;;5.84;79.88;103300.28;5079540;28;20648;-50
2023/02/10 10:37:44;;;;;;;128.00;40.63;;;;;;;5.91;80.18;103292.97;5091960;28;20047;-49
2023/02/10 10:40:19;;;;;;;123.72;42.05;;;;;;;5.87;80.11;103296.66;5079855;28;20039;-48
2023/02/10 10:42:52;;;;;;;128.05;41.60;;;;;;;6.08;80.19;103302.88;5078233;28;20118;-47
2023/02/10 10:45:24;;;;;;;118.75;40.90;;;;;;;5.84;80.03;103297.66;5079487;28;20462;-47
2023/02/10 10:47:59;;;;;;;124.88;41.90;;;;;;;6.05;79.41;103298.59;5086294;28;20063;-47
2023/02/10 10:50:26;;;;;;;132.80;41.25;;;;;;;6.18;79.13;103295.47;5070901;28;20032;-46
2023/02/10 10:52:55;;;;;;;130.75;42.33;;;;;;;6.16;79.68;103290.25;5079571;28;20059;-49
2023/02/10 10:55:35;;;;;;;125.78;42.22;;;;;;;6.29;79.53;103290.59;5095201;28;20107;-48
2023/02/10 10:58:13;;;;;;;125.82;42.10;;;;;;;6.53;77.56;103279.03;5063429;28;20147;-47
2023/02/10 11:00:50;;;;;;;122.70;41.47;;;;;;;6.46;76.81;103280.22;5096469;28;20062;-48
2023/02/10 11:03:17;;;;;;;128.07;41.17;;;;;;;6.38;77.62;103276.19;5073190;28;20651;-48
2023/02/10 11:05:58;;;;;;;118.53;41.72;;;;;;;6.43;77.59;103279.47;5073423;28;20132;-47
2023/02/10 11:08:31;;;;;;;129.13;40.50;;;;;;;6.84;76.54;103272.41;5086307;28;20383;-49
2023/02/10 11:11:01;;;;;;;120.43;40.45;;;;;;;7.16;74.71;103278.03;5096782;28;20131;-49
2023/02/10 11:13:32;;;;;;;121.72;40.80;;;;;;;7.28;73.14;103272.19;5092927;28;20047;-46
2023/02/10 11:16:02;;;;;;;126.55;41.05;;;;;;;8.39;69.59;103264.19;5093198;28;20048;-46
2023/02/10 11:18:30;;;;;;;123.68;41.50;;;;;;;10.48;62.30;103266.91;5065888;28;20040;-48
2023/02/10 11:21:01;;;;;;;121.35;41.45;;;;;;;11.62;56.54;103273.09;5079074;28;20040;-49
2023/02/10 11:23:29;;;;;;;125.07;41.25;;;;;;;13.70;51.41;103264.16;5086381;28;20447;-50
2023/02/10 11:26:04;;;;;;;343.25;126.45;;;;;;;13.78;49.12;103261.78;5080143;28;20127;-48
2023/02/10 11:28:35;;;;;;;123.60;42.58;;;;;;;14.30;47.39;103275.72;5070620;28;20038;-48
2023/02/10 11:31:12;;;;;;;138.50;42.55;;;;;;;14.94;45.42;103277.91;5073812;28;20044;-49
2023/02/10 11:33:39;;;;;;;133.30;45.25;;;;;;;14.69;45.96;103263.78;5097954;28;20039;-48
2023/02/10 11:36:08;;;;;;;122.95;42.78;;;;;;;14.94;44.75;103269.91;5073890;28;20046;-48
2023/02/10 11:38:36;;;;;;;123.68;42.75;;;;;;;14.37;44.55;103259.09;5064196;28;20042;-50
2023/02/10 11:41:08;;;;;;;112.63;36.70;;;;;;;13.46;45.46;103262.34;5071500;28;20442;-48